Latest Weather Observations for Milingimbi

IDD60801

Issued at 7:35 pm CST Friday 31 October 2014 (issued every 30 minutes, with the page automatically refreshed every 10 minutes)

About weather observations | Map of weather stations | Latest weather observations for NT | Other Formats
Station Details ID: 014404 Name: MILINGIMBI AIRPORT Lat: -12.09 Lon: 134.89 Height: 15.0 m
Data from the previous 72 hours. | See also: Recent months at Milingimbi
Date/Time
CST
Temp
°C
App
Temp
°C
Dew
Point
Rel
Hum
%
Delta-T
°C
Wind Press
QNH
hPa
Press
MSL
hPa
Rain
since 9 am
mm
Dir
 
Spd
km/h
Gust
km/h
Spd
kts
Gust
kts
31/07:30pm 25.9 28.4 20.2 71 3.7 NNW 7 11 4 6 1008.8 - 0.0
31/07:00pm 26.3 28.6 19.9 68 4.2 NNW 7 13 4 7 1008.7 - 0.0
31/06:30pm 26.8 28.9 20.2 67 4.3 N 9 17 5 9 1008.5 - 0.0
31/06:00pm 27.5 29.6 20.1 64 4.8 N 9 17 5 9 1008.3 1008.2 0.0
31/05:30pm 28.0 29.5 19.8 61 5.3 N 11 19 6 10 1008.1 - 0.0
31/05:00pm 29.0 30.7 20.2 59 5.8 N 11 19 6 10 1008.2 - 0.0
31/04:30pm 29.3 30.6 20.2 58 6.0 N 13 24 7 13 1008.3 - 0.0
31/04:00pm 29.3 30.6 20.2 58 6.0 NNW 13 19 7 10 1008.4 - 0.0
31/03:30pm 29.7 31.6 20.5 57 6.1 N 11 20 6 11 1008.6 - 0.0
31/03:00pm 30.3 31.9 20.8 56 6.3 N 13 20 7 11 1008.9 1008.8 0.0
31/02:30pm 29.4 30.8 20.3 58 6.0 N 13 20 7 11 1009.0 - 0.0
31/02:00pm 29.8 31.3 21.2 60 5.7 N 15 24 8 13 1009.2 - 0.0
31/01:30pm 30.0 31.5 20.5 56 6.3 N 13 24 7 13 1009.5 - 0.0
31/01:00pm 30.5 32.2 21.0 57 6.3 N 13 20 7 11 1010.0 - 0.0
31/12:30pm 29.9 31.4 21.3 60 5.8 NNE 15 26 8 14 1010.3 - 0.0
31/12:00pm 29.2 30.5 20.9 61 5.5 N 15 24 8 13 1010.6 1010.5 0.0
31/11:30am 29.4 31.0 20.8 60 5.7 N 13 22 7 12 1010.9 - 0.0
31/11:00am 29.2 30.7 20.6 59 5.7 N 13 26 7 14 1011.3 - 0.0
31/10:30am 29.0 30.2 20.7 61 5.5 N 15 24 8 13 1011.7 - 0.0
31/10:00am 29.2 31.1 20.6 59 5.7 N 11 17 6 9 1012.0 - 0.0
31/09:30am 28.7 30.5 20.4 60 5.5 NNE 11 17 6 9 1012.0 - 0.0
31/09:00am 28.7 30.9 20.4 60 5.5 NNE 9 15 5 8 1012.2 1012.1 0.0
31/08:30am 27.9 29.8 20.5 64 4.9 N 11 19 6 10 1011.9 - 0.0
31/08:00am 27.1 28.9 20.4 66 4.4 NNE 11 17 6 9 1011.7 - 0.0
31/07:30am 27.2 29.6 20.8 68 4.2 NE 9 13 5 7 1011.2 - 0.0
31/07:00am 25.3 28.8 21.8 81 2.3 NE 6 9 3 5 1010.9 - 0.0
31/06:30am 23.0 27.3 21.1 89 1.2 CALM 0 0 0 0 1010.4 - 0.0
31/06:00am 22.5 25.4 20.6 89 1.2 ENE 6 7 3 4 1010.1 1010.0 0.0
31/05:30am 22.6 25.9 20.7 89 1.2 NE 4 9 2 5 1009.7 - 0.0
31/05:00am 22.7 26.7 20.6 88 1.4 CALM 0 6 0 3 1009.4 - 0.0
31/04:30am 22.9 26.5 20.6 87 1.5 NE 2 6 1 3 1009.1 - 0.0
31/04:00am 23.1 26.4 20.8 87 1.5 NNE 4 7 2 4 1009.0 - 0.0
31/03:30am 23.1 27.2 20.8 87 1.5 CALM 0 6 0 3 1008.8 - 0.0
31/03:00am 23.3 27.1 21.0 87 1.5 NE 2 7 1 4 1008.8 1008.7 0.0
31/02:30am 23.4 26.9 21.1 87 1.5 N 4 7 2 4 1009.1 - 0.0
31/02:00am 23.3 26.1 20.4 84 1.9 NE 6 7 3 4 1009.2 - 0.0
31/01:30am 23.9 27.7 21.0 84 1.9 ENE 2 7 1 4 1009.3 - 0.0
31/01:00am 24.3 27.4 21.4 84 1.9 ENE 7 9 4 5 1009.6 - 0.0
31/12:30am 23.9 27.3 21.0 84 1.9 NE 4 7 2 4 1009.7 - 0.0
31/12:00am 23.8 27.8 20.5 82 2.1 CALM 0 0 0 0 1009.8 1009.7 0.0
 
Date/Time
CST
Temp
°C
App
Temp
°C
Dew
Point
Rel
Hum
%
Delta-T
°C
Wind Press
QNH
hPa
Press
MSL
hPa
Rain
since 9 am
mm
Dir
 
Spd
km/h
Gust
km/h
Spd
kts
Gust
kts
30/11:30pm 23.9 27.8 20.4 81 2.3 CALM 0 0 0 0 1010.0 - 0.0
30/11:00pm 24.1 28.0 20.4 80 2.4 CALM 0 0 0 0 1010.1 - 0.0
30/10:30pm 24.4 28.4 20.5 79 2.5 CALM 0 0 0 0 1010.3 - 0.0
30/10:00pm 24.4 27.6 20.5 79 2.5 NNE 4 6 2 3 1010.1 - 0.0
30/09:30pm 24.5 28.4 20.4 78 2.7 CALM 0 0 0 0 1010.0 - 0.0
30/09:00pm 24.7 28.5 20.2 76 2.9 CALM 0 0 0 0 1009.5 1009.4 0.0
30/08:30pm 25.5 29.4 20.3 73 3.4 CALM 0 0 0 0 1009.3 - 0.0
30/08:00pm 25.9 29.1 20.5 72 3.5 N 4 7 2 4 1009.1 - 0.0
30/07:30pm 26.3 29.1 20.4 70 3.9 NNW 6 7 3 4 1009.0 - 0.0
30/07:00pm 26.7 29.4 20.3 68 4.2 NNW 6 7 3 4 1008.9 - 0.0
30/06:30pm 27.3 29.9 20.4 66 4.5 N 7 11 4 6 1008.6 - 0.0
30/06:00pm 27.9 30.1 20.5 64 4.9 N 9 15 5 8 1008.5 1008.4 0.0
30/05:30pm 28.3 30.1 20.3 62 5.3 N 11 19 6 10 1008.4 - 0.0
30/05:00pm 28.8 30.2 20.3 60 5.6 N 13 20 7 11 1008.2 - 0.0
30/04:30pm 29.7 31.2 20.5 57 6.1 N 13 20 7 11 1008.3 - 0.0
30/04:00pm 29.1 30.1 20.3 59 5.8 N 15 24 8 13 1008.4 - 0.0
30/03:30pm 29.6 30.6 20.2 57 6.2 N 15 24 8 13 1008.6 - 0.0
30/03:00pm 30.2 31.9 21.0 58 6.1 N 13 22 7 12 1008.8 1008.7 0.0
30/02:30pm 29.7 30.4 20.5 57 6.1 NNW 17 30 9 16 1009.0 - 0.0
30/02:00pm 29.8 30.7 20.1 56 6.4 N 15 20 8 11 1009.2 - 0.0
30/01:30pm 30.3 32.5 21.1 58 6.2 N 11 20 6 11 1009.8 - 0.0
30/01:00pm 29.5 31.3 21.2 61 5.5 N 13 20 7 11 1010.2 - 0.0
30/12:30pm 29.2 30.3 20.4 59 5.8 N 15 24 8 13 1010.6 - 0.0
30/12:00pm 29.5 30.3 20.6 58 5.9 NNW 17 28 9 15 1010.9 1010.8 0.0
30/11:30am 29.2 30.5 20.9 61 5.5 N 15 24 8 13 1011.3 - 0.0
30/11:00am 29.5 31.4 21.4 61 5.4 NNW 13 20 7 11 1011.6 - 0.0
30/10:30am 29.2 31.0 21.2 62 5.3 N 13 20 7 11 1011.8 - 0.0
30/10:00am 29.1 31.5 21.6 64 5.0 NNW 11 20 6 11 1012.1 - 0.0
30/09:30am 28.4 30.2 21.2 65 4.8 N 13 20 7 11 1012.1 - 0.0
30/09:00am 28.6 31.6 21.9 67 4.5 N 9 17 5 9 1012.0 1011.9 0.0
30/08:30am 27.4 29.9 21.0 68 4.2 N 9 17 5 9 1011.9 - 0.0
30/08:00am 27.0 30.6 21.3 71 3.8 WNW 4 9 2 5 1011.8 - 0.0
30/07:30am 25.1 28.8 20.8 77 2.8 SW 2 6 1 3 1011.6 - 0.0
30/07:00am 23.0 27.0 20.5 86 1.6 CALM 0 0 0 0 1011.2 - 0.0
30/06:30am 21.7 25.3 19.8 89 1.2 CALM 0 0 0 0 1010.8 - 0.0
30/06:00am 21.3 24.7 19.4 89 1.2 CALM 0 0 0 0 1010.5 1010.4 0.0
30/05:30am 21.3 24.6 19.0 87 1.5 CALM 0 0 0 0 1010.2 - 0.0
30/05:00am 21.6 24.7 19.5 88 1.3 SSW 2 6 1 3 1010.0 - 0.0
30/04:30am 21.8 25.3 19.5 87 1.5 CALM 0 0 0 0 1009.8 - 0.0
30/04:00am 22.0 25.5 19.5 86 1.6 CALM 0 0 0 0 1009.7 - 0.0
30/03:30am 22.2 25.5 19.9 87 1.5 SSW 2 6 1 3 1009.8 - 0.0
30/03:00am 22.6 26.5 20.3 87 1.5 CALM 0 0 0 0 1009.9 1009.8 0.0
30/02:30am 22.7 26.5 20.2 86 1.6 CALM 0 0 0 0 1010.0 - 0.0
30/02:00am 22.9 26.8 20.4 86 1.6 CALM 0 0 0 0 1010.4 - 0.0
30/01:30am 23.1 27.1 20.6 86 1.6 CALM 0 0 0 0 1010.6 - 0.0
30/01:00am 23.1 27.0 20.4 85 1.8 CALM 0 0 0 0 1010.9 - 0.0
30/12:30am 23.1 26.1 20.1 83 1.9 ENE 4 7 2 4 1011.1 - 0.0
30/12:00am 23.7 27.2 20.4 82 2.1 ESE 2 7 1 4 1011.5 1011.4 0.0
 
Date/Time
CST
Temp
°C
App
Temp
°C
Dew
Point
Rel
Hum
%
Delta-T
°C
Wind Press
QNH
hPa
Press
MSL
hPa
Rain
since 9 am
mm
Dir
 
Spd
km/h
Gust
km/h
Spd
kts
Gust
kts
29/11:30pm 23.6 27.5 20.3 82 2.1 CALM 0 0 0 0 1011.7 - 0.0
29/11:00pm 23.6 27.4 20.1 81 2.3 CALM 0 0 0 0 1011.9 - 0.0
29/10:30pm 24.1 27.9 20.2 79 2.5 CALM 0 0 0 0 1012.0 - 0.0
29/10:00pm 24.0 27.3 19.9 78 2.6 NNE 2 6 1 3 1011.8 - 0.0
29/09:30pm 24.4 28.1 19.9 76 2.9 CALM 0 0 0 0 1011.7 - 0.0
29/09:00pm 24.6 28.2 19.7 74 3.2 CALM 0 0 0 0 1011.4 1011.3 0.0
29/08:30pm 25.0 28.5 19.6 72 3.5 CALM 0 0 0 0 1011.2 - 0.0
29/08:00pm 25.4 28.6 19.8 71 3.6 N 2 6 1 3 1010.7 - 0.0
29/07:30pm 26.4 29.3 19.8 67 4.3 N 4 9 2 5 1010.4 - 0.0
29/07:00pm 26.7 28.9 19.3 64 4.8 N 6 7 3 4 1010.4 - 0.0
29/06:30pm 27.2 28.7 19.0 61 5.3 N 9 13 5 7 1010.2 - 0.0
29/06:00pm 28.0 29.5 19.0 58 5.8 N 9 17 5 9 1009.9 1009.8 0.0
29/05:30pm 28.5 29.2 18.9 56 6.2 N 13 20 7 11 1009.7 - 0.0
29/05:00pm 29.0 29.9 19.3 55 6.3 N 13 20 7 11 1009.5 - 0.0
29/04:30pm 29.1 30.3 20.0 58 6.0 N 13 20 7 11 1009.5 - 0.0
29/04:00pm 29.7 30.5 19.1 53 6.9 N 13 20 7 11 1009.5 - 0.0
29/03:30pm 30.4 30.8 18.2 48 7.8 N 13 20 7 11 1009.4 - 0.0
29/03:00pm 31.0 31.3 18.0 45 8.4 N 13 20 7 11 1009.6 1009.5 0.0
29/02:30pm 30.8 31.4 18.5 47 7.9 N 13 20 7 11 1009.9 - 0.0
29/02:00pm 31.0 32.0 19.4 50 7.6 N 13 20 7 11 1010.2 - 0.0
29/01:30pm 31.2 32.5 20.2 52 7.3 N 13 20 7 11 1010.4 - 0.0
29/01:00pm 31.2 32.4 19.9 51 7.5 NNE 13 20 7 11 1010.9 - 0.0
29/12:30pm 30.0 30.3 18.8 51 7.2 N 15 20 8 11 1011.3 - 0.0
29/12:00pm 30.4 31.2 19.1 50 7.4 N 13 20 7 11 1011.6 1011.5 0.0
29/11:30am 29.9 30.4 19.3 53 6.9 N 15 26 8 14 1012.1 - 0.0
29/11:00am 30.7 31.3 17.7 45 8.3 ENE 11 20 6 11 1012.4 - 0.0
29/10:30am 29.8 30.4 18.6 51 7.2 ENE 13 20 7 11 1012.7 - 0.0
29/10:00am 29.2 30.2 19.5 56 6.3 ENE 13 26 7 14 1012.8 - 0.0
29/09:30am 29.0 29.5 19.3 55 6.3 E 15 24 8 13 1013.0 - 0.0
29/09:00am 28.2 29.5 20.2 62 5.3 ENE 13 22 7 12 1013.0 1012.9 0.0
29/08:30am 28.0 29.5 19.8 61 5.3 ENE 11 19 6 10 1012.7 - 0.0
29/08:00am 27.2 29.0 20.3 66 4.5 NE 11 17 6 9 1012.4 - 0.0
29/07:30am 25.8 28.7 21.0 75 3.2 S 7 9 4 5 1012.4 - 0.0
29/07:00am 23.5 27.7 21.0 86 1.6 CALM 0 7 0 4 1012.2 - 0.0
29/06:30am 22.0 25.9 20.3 90 1.1 CALM 0 0 0 0 1011.9 - 0.0
29/06:00am 21.7 25.3 19.8 89 1.2 CALM 0 0 0 0 1011.7 1011.6 0.0
29/05:30am 21.7 25.2 19.6 88 1.3 CALM 0 0 0 0 1011.4 - 0.0
29/05:00am 22.1 25.6 19.6 86 1.6 CALM 0 0 0 0 1011.1 - 0.0
29/04:30am 22.6 26.2 19.8 84 1.8 CALM 0 0 0 0 1010.9 - 0.0
29/04:00am 23.2 26.8 19.8 81 2.2 CALM 0 0 0 0 1010.9 - 0.0
29/03:30am 24.6 27.4 20.5 78 2.7 ENE 6 9 3 5 1011.0 - 0.0
29/03:00am 25.0 27.6 20.5 76 2.9 E 7 11 4 6 1011.0 1010.9 0.0
29/02:30am 25.5 28.2 20.7 75 3.1 ENE 7 13 4 7 1011.2 - 0.0
29/02:00am 25.8 28.2 20.8 74 3.3 E 9 17 5 9 1011.4 - 0.0
29/01:30am 25.9 28.3 21.6 77 2.9 E 11 17 6 9 1011.7 - 0.0
29/01:00am 26.0 28.3 21.4 76 3.1 E 11 20 6 11 1011.7 - 0.0
29/12:30am 26.5 28.6 21.7 75 3.2 E 13 24 7 13 1011.6 - 0.0
29/12:00am 26.4 28.3 21.4 74 3.3 E 13 28 7 15 1011.7 1011.6 0.0
 
Date/Time
CST
Temp
°C
App
Temp
°C
Dew
Point
Rel
Hum
%
Delta-T
°C
Wind Press
QNH
hPa
Press
MSL
hPa
Rain
since 9 am
mm
Dir
 
Spd
km/h
Gust
km/h
Spd
kts
Gust
kts
28/11:30pm 26.6 29.0 21.6 74 3.3 E 11 20 6 11 1011.8 - 0.0
28/11:00pm 26.4 29.2 21.6 75 3.2 E 9 19 5 10 1011.8 - 0.0
28/10:30pm 26.5 29.3 21.5 74 3.3 E 9 17 5 9 1011.7 - 0.0
28/10:00pm 26.7 29.2 21.7 74 3.3 ENE 11 20 6 11 1011.4 - 0.0
28/09:30pm 27.0 29.3 21.3 71 3.8 ENE 11 20 6 11 1011.2 - 0.0
28/09:00pm 27.0 29.3 21.3 71 3.8 E 11 19 6 10 1011.1 1011.0 0.0
28/08:30pm 26.5 29.4 21.0 72 3.6 NE 7 11 4 6 1010.7 - 0.0
28/08:00pm 26.4 29.2 20.9 72 3.6 ENE 7 11 4 6 1010.2 - 0.0

Other Formats:

Comma delimited format used in spreadsheet applications
http://www.bom.gov.au/fwo/IDD60801/IDD60801.94140.axf

JavaScript Object Notation format (JSON) in row-major order
http://www.bom.gov.au/fwo/IDD60801/IDD60801.94140.json